Clawson, MI (48017)

3:34 PM EDT on July 29, 2015 (GMT -0400)
NWClawsonMI | | Change Station
CLOSE
Current Station
Personal Weather Station
Location: Clawson, MI
Elevation: 702 ft
Nearby Weather Stations

Elev 702 ft 42.54 °N, 83.16 °W | Updated 8 seconds ago

Scattered Clouds
Scattered Clouds
91.4 °F
Feels Like 102 °F
N
3.7
Wind Variable Wind from SSE

Today
High -- | Low -- °F
--% Chance of Precip.
Yesterday
High -- | Low -- °F
Precip. -- in
6:21 AM 8:56 PM
Waxing Gibbous, 96% visible
Pressure 29.88 in
Visibility 10.0 miles
Clouds Scattered Clouds 4400 ft
Scattered Clouds 5000 ft
Scattered Clouds 7000 ft
Heat Index 102 °F
Dew Point 75 °F
Humidity 59%
Rainfall 0.00 in
Snow Depth Not available.
UV 8 out of 12
Pollen 6.40 out of 12
Air Quality Not available.
Flu Activity Not available.
METAR KVLL 291914Z AUTO 21009G15KT 180V250 10SM SCT044 SCT050 SCT070 34/20 A2988 RMK AO2 T03350204

More Conditions Fewer Conditions

Pressure 29.88 in
Visibility 10.0 miles
Clouds Scattered Clouds 4400 ft
Scattered Clouds 5000 ft
Scattered Clouds 7000 ft
Heat Index 102 °F
Dew Point 75 °F
Humidity 59%
Rainfall 0.00 in
Snow Depth Not available.
UV 8 out of 12
Pollen 6.40 out of 12
Air Quality Not available.
Flu Activity Not available.
METAR KVLL 291914Z AUTO 21009G15KT 180V250 10SM SCT044 SCT050 SCT070 34/20 A2988 RMK AO2 T03350204

More Conditions Fewer Conditions

10-Day Weather Forecast

×

Almanac

Astronomy

Jul. 29, 2015 Rise Set
Actual Time
Civil Twilight
Nautical Twilight
Astronomical Twilight
Moon
Length of Visible Light
Length of Day
Tomorrow will be .
, % of the Moon is Illuminated

Today's Extremes

State Highs State Lows

Community

WunderPhotos

Upload Photos

1,842,155 photos uploaded!

WunderBlogs® & News

Nearby

Air Quality

  Air Quality AQ Index Pollutant
Not available.

Snow Depth

Station Depth Elevation

Earthquake Activity

City Distance Mag. Time & Date
Minimum magnitude displayed is 2.5.

Coastal Water Temperatures

Place Temperature

Stations

Nearby Weather Stations

Station Location Temp. Windchill Dew Point Humidity Wind Precip. Elev Updated Type